createdAt,value
2018-02-09T00:00:27.068Z,35.93
2018-02-09T00:02:55.205Z,35.90
2018-02-09T00:05:24.138Z,36.87
2018-02-09T00:07:52.281Z,37.27
2018-02-09T00:10:28.612Z,35.97
2018-02-09T00:12:56.756Z,41.13
2018-02-09T00:15:24.920Z,38.23
2018-02-09T00:17:53.052Z,45.00
2018-02-09T00:20:26.723Z,39.63
2018-02-09T00:22:54.866Z,41.87
2018-02-09T00:25:23.037Z,40.10
2018-02-09T00:27:51.181Z,39.80
2018-02-09T00:30:24.641Z,37.20
2018-02-09T00:32:52.780Z,38.07
2018-02-09T00:35:20.944Z,38.63
2018-02-09T00:37:49.089Z,38.97
2018-02-09T00:40:18.260Z,40.13
2018-02-09T00:42:46.396Z,40.43
2018-02-09T00:45:14.556Z,35.37
2018-02-09T00:47:42.685Z,35.67
2018-02-09T00:50:13.953Z,32.90
2018-02-09T00:52:42.084Z,35.83
2018-02-09T00:55:10.225Z,36.97
2018-02-09T00:57:38.386Z,34.80
2018-02-09T01:00:14.284Z,38.60
2018-02-09T01:02:42.437Z,35.60
2018-02-09T01:05:10.573Z,37.83
2018-02-09T01:07:38.741Z,35.83
2018-02-09T01:10:07.993Z,35.23
2018-02-09T01:12:36.140Z,36.23
2018-02-09T01:15:05.046Z,37.03
2018-02-09T01:17:33.214Z,36.17
2018-02-09T01:20:11.950Z,35.80
2018-02-09T01:22:40.125Z,37.60
2018-02-09T01:25:08.269Z,38.63
2018-02-09T01:27:37.192Z,36.60
2018-02-09T01:30:05.347Z,37.33
2018-02-09T01:32:33.509Z,35.40
2018-02-09T01:35:02.409Z,38.93
2018-02-09T01:37:30.565Z,38.70
2018-02-09T01:40:01.437Z,36.80
2018-02-09T01:42:29.633Z,37.93
2018-02-09T01:44:57.777Z,39.37
2018-02-09T01:47:25.981Z,36.20
2018-02-09T01:50:16.201Z,38.57
2018-02-09T01:52:44.358Z,37.20
2018-02-09T01:55:12.512Z,34.43
2018-02-09T01:57:40.670Z,37.03
2018-02-09T02:00:19.488Z,33.20
2018-02-09T02:02:47.652Z,36.37
2018-02-09T02:05:15.789Z,38.83
2018-02-09T02:07:43.954Z,38.40
2018-02-09T02:10:12.105Z,38.23
2018-02-09T02:12:40.358Z,36.63
2018-02-09T02:15:08.501Z,38.90
2018-02-09T02:17:37.429Z,35.23
2018-02-09T02:20:15.840Z,35.07
2018-02-09T02:22:44.025Z,33.97
2018-02-09T02:25:12.181Z,34.43
2018-02-09T02:27:40.336Z,32.67
2018-02-09T02:30:08.473Z,33.07
2018-02-09T02:32:36.625Z,29.93
2018-02-09T02:35:04.763Z,33.73
2018-02-09T02:37:32.925Z,34.87
2018-02-09T02:40:04.396Z,32.07
2018-02-09T02:42:32.549Z,33.40
2018-02-09T02:45:00.706Z,32.27
2018-02-09T02:47:29.633Z,32.07
2018-02-09T02:50:05.281Z,32.83
2018-02-09T02:52:33.459Z,32.70
2018-02-09T02:55:01.602Z,33.13
2018-02-09T02:57:30.534Z,32.63
2018-02-09T03:00:02.382Z,33.60
2018-02-09T03:02:30.585Z,29.53
2018-02-09T03:04:58.720Z,34.53
2018-02-09T03:07:26.862Z,30.93
2018-02-09T03:10:03.385Z,30.67
2018-02-09T03:12:31.520Z,33.33
2018-02-09T03:14:59.670Z,32.33
2018-02-09T03:17:28.570Z,34.13
2018-02-09T03:20:01.101Z,34.00
2018-02-09T03:22:29.237Z,32.47
2018-02-09T03:24:57.402Z,33.13
2018-02-09T03:27:25.549Z,33.27
2018-02-09T03:29:57.797Z,30.57
2018-02-09T03:32:25.935Z,33.60
2018-02-09T03:34:54.092Z,32.10
2018-02-09T03:37:22.277Z,31.70
2018-02-09T03:40:03.165Z,31.03
2018-02-09T03:42:31.306Z,32.03
2018-02-09T03:45:00.233Z,32.87
2018-02-09T03:47:28.368Z,32.47
2018-02-09T03:49:59.244Z,34.87
2018-02-09T03:52:27.376Z,31.93
2018-02-09T03:54:56.313Z,35.13
2018-02-09T03:57:24.460Z,30.77
2018-02-09T03:59:56.141Z,30.87
2018-02-09T04:02:24.276Z,30.83
2018-02-09T04:04:52.465Z,32.37
2018-02-09T04:07:20.621Z,31.07
2018-02-09T04:09:48.769Z,31.97
2018-02-09T04:12:16.941Z,30.97
2018-02-09T04:14:45.083Z,32.53
2018-02-09T04:17:13.242Z,30.63
2018-02-09T04:19:41.380Z,32.67
2018-02-09T04:22:10.305Z,33.27
2018-02-09T04:24:38.437Z,32.87
2018-02-09T04:27:07.378Z,33.93
2018-02-09T04:29:43.737Z,31.47
2018-02-09T04:32:11.890Z,34.07
2018-02-09T04:34:40.025Z,33.53
2018-02-09T04:37:08.968Z,33.53
2018-02-09T04:39:45.696Z,33.70
2018-02-09T04:42:13.815Z,34.87
2018-02-09T04:44:41.963Z,33.17
2018-02-09T04:47:10.202Z,30.57
2018-02-09T04:49:39.325Z,33.07
2018-02-09T04:52:08.322Z,31.77
2018-02-09T04:54:37.325Z,32.13
2018-02-09T04:57:05.527Z,33.73
2018-02-09T04:59:38.129Z,32.37
2018-02-09T05:02:06.289Z,34.03
2018-02-09T05:04:34.463Z,35.07
2018-02-09T05:07:02.625Z,33.87
2018-02-09T05:09:38.096Z,31.00
2018-02-09T05:12:06.233Z,36.67
2018-02-09T05:14:34.385Z,31.83
2018-02-09T05:17:02.550Z,33.07
2018-02-09T05:19:31.492Z,35.87
2018-02-09T05:21:59.635Z,35.40
2018-02-09T05:24:27.796Z,33.73
2018-02-09T05:26:55.933Z,33.63
2018-02-09T05:29:27.868Z,35.17
2018-02-09T05:31:56.008Z,35.90
2018-02-09T05:34:24.165Z,32.00
2018-02-09T05:36:52.305Z,32.90
2018-02-09T05:39:33.442Z,38.33
2018-02-09T05:42:01.590Z,35.80
2018-02-09T05:44:30.493Z,36.33
2018-02-09T05:46:58.644Z,39.57
2018-02-09T05:49:27.549Z,36.10
2018-02-09T05:51:56.466Z,37.07
2018-02-09T05:54:24.592Z,37.40
2018-02-09T05:56:53.522Z,35.77
2018-02-09T05:59:21.757Z,37.57
2018-02-09T06:01:49.918Z,36.23
2018-02-09T06:04:18.065Z,37.57
2018-02-09T06:06:46.226Z,36.93
2018-02-09T06:09:14.381Z,37.43
2018-02-09T06:11:42.541Z,36.00
2018-02-09T06:14:11.448Z,35.43
2018-02-09T06:16:39.606Z,36.30
2018-02-09T06:19:07.853Z,36.67
2018-02-09T06:21:36.018Z,36.43
2018-02-09T06:24:04.153Z,37.73
2018-02-09T06:26:32.329Z,37.60
2018-02-09T06:29:02.260Z,36.97
2018-02-09T06:31:30.425Z,37.23
2018-02-09T06:33:58.561Z,38.03
2018-02-09T06:36:27.517Z,36.63
2018-02-09T06:38:55.665Z,40.87
2018-02-09T06:41:23.805Z,39.23
2018-02-09T06:43:51.973Z,36.37
2018-02-09T06:46:20.127Z,40.43
2018-02-09T06:48:50.010Z,39.70
2018-02-09T06:51:18.166Z,38.23
2018-02-09T06:53:46.330Z,40.20
2018-02-09T06:56:14.465Z,39.57
2018-02-09T06:58:50.992Z,38.47
2018-02-09T07:01:19.130Z,37.90
2018-02-09T07:03:47.305Z,39.27
2018-02-09T07:06:15.445Z,39.23
2018-02-09T07:08:49.214Z,40.30
2018-02-09T07:11:17.349Z,40.73
2018-02-09T07:13:45.513Z,41.93
2018-02-09T07:16:13.664Z,43.50
2018-02-09T07:18:43.757Z,37.90
2018-02-09T07:21:11.901Z,39.83
2018-02-09T07:23:40.056Z,41.07
2018-02-09T07:26:08.203Z,39.73
2018-02-09T07:28:37.349Z,37.97
2018-02-09T07:31:05.505Z,34.70
2018-02-09T07:33:33.640Z,36.60
2018-02-09T07:36:01.801Z,37.93
2018-02-09T07:38:29.961Z,38.40
2018-02-09T07:40:58.134Z,39.37
2018-02-09T07:43:26.281Z,39.37
2018-02-09T07:45:54.482Z,42.60
2018-02-09T07:48:22.621Z,40.30
2018-02-09T07:50:50.768Z,40.47
2018-02-09T07:53:19.669Z,37.73
2018-02-09T07:55:48.625Z,38.30
2018-02-09T07:58:16.765Z,40.87
2018-02-09T08:00:44.913Z,43.00
2018-02-09T08:03:13.057Z,45.83
2018-02-09T08:05:41.221Z,36.40
2018-02-09T08:08:09.425Z,41.07
2018-02-09T08:11:06.444Z,40.57
2018-02-09T08:13:34.590Z,34.23
2018-02-09T08:16:02.751Z,40.07
2018-02-09T08:18:48.206Z,39.70
2018-02-09T08:21:16.364Z,40.93
2018-02-09T08:23:45.264Z,43.23
2018-02-09T08:26:14.197Z,44.90
2018-02-09T08:28:46.045Z,43.37
2018-02-09T08:31:14.221Z,41.10
2018-02-09T08:33:42.356Z,43.17
2018-02-09T08:36:10.486Z,41.73
2018-02-09T08:38:59.725Z,44.20
2018-02-09T08:41:27.957Z,45.27
2018-02-09T08:43:56.110Z,46.37
2018-02-09T08:46:24.254Z,47.33
2018-02-09T08:48:52.408Z,41.30
2018-02-09T08:51:20.561Z,43.73
2018-02-09T08:53:49.492Z,45.67
2018-02-09T08:56:17.637Z,45.13
2018-02-09T08:58:46.777Z,44.10
2018-02-09T09:01:14.917Z,41.70
2018-02-09T09:03:43.073Z,43.70
2018-02-09T09:06:11.977Z,42.13
2018-02-09T09:08:41.110Z,44.07
2018-02-09T09:11:09.245Z,41.63
2018-02-09T09:13:37.396Z,44.83
2018-02-09T09:16:06.380Z,41.17
2018-02-09T09:18:38.721Z,41.17
2018-02-09T09:21:06.874Z,43.53
2018-02-09T09:23:35.118Z,39.63
2018-02-09T09:26:04.078Z,45.43
2018-02-09T09:28:35.554Z,39.43
2018-02-09T09:31:04.477Z,38.40
2018-02-09T09:33:32.687Z,42.43
2018-02-09T09:36:00.833Z,44.30
2018-02-09T09:38:28.965Z,41.53
2018-02-09T09:40:57.918Z,44.20
2018-02-09T09:43:26.999Z,42.70
2018-02-09T09:45:55.162Z,42.43
2018-02-09T09:48:37.288Z,40.03
2018-02-09T09:51:05.539Z,44.83
2018-02-09T09:53:33.736Z,42.23
2018-02-09T09:56:01.911Z,46.43
2018-02-09T09:58:34.842Z,41.77
2018-02-09T10:01:09.314Z,43.67
2018-02-09T10:03:37.494Z,43.63
2018-02-09T10:06:05.725Z,44.90
2018-02-09T10:08:33.865Z,46.37
2018-02-09T10:11:02.029Z,39.87
2018-02-09T10:13:30.165Z,40.50
2018-02-09T10:15:58.318Z,44.33
2018-02-09T10:18:26.459Z,46.90
2018-02-09T10:20:55.406Z,45.13
2018-02-09T10:23:23.553Z,42.50
2018-02-09T10:25:51.758Z,42.93
2018-02-09T10:28:21.935Z,47.47
2018-02-09T10:30:50.937Z,46.27
2018-02-09T10:33:19.215Z,43.93
2018-02-09T10:35:47.353Z,48.00
2018-02-09T10:38:15.505Z,46.80
2018-02-09T10:40:43.637Z,42.37
2018-02-09T10:43:11.796Z,46.37
2018-02-09T10:45:40.703Z,41.87
2018-02-09T10:48:08.873Z,49.20
2018-02-09T10:50:44.333Z,49.90
2018-02-09T10:53:12.499Z,50.10
2018-02-09T10:55:40.633Z,51.60
2018-02-09T10:58:08.824Z,43.20
2018-02-09T11:00:56.374Z,46.83
2018-02-09T11:03:24.529Z,51.20
2018-02-09T11:05:53.479Z,51.53
2018-02-09T11:08:23.377Z,53.80
2018-02-09T11:10:58.937Z,58.87
2018-02-09T11:13:32.592Z,46.73
2018-02-09T11:16:00.741Z,49.97
2018-02-09T11:18:29.665Z,49.37
2018-02-09T11:20:57.804Z,54.50
2018-02-09T11:23:25.992Z,50.40
2018-02-09T11:25:54.884Z,49.47
2018-02-09T11:28:23.081Z,46.60
2018-02-09T11:30:51.217Z,47.90
2018-02-09T11:33:20.129Z,50.93
2018-02-09T11:35:48.345Z,48.47
2018-02-09T11:38:16.614Z,50.23
2018-02-09T11:40:44.853Z,48.37
2018-02-09T11:43:13.039Z,49.87
2018-02-09T11:45:41.277Z,51.17
2018-02-09T11:48:09.473Z,53.90
2018-02-09T11:50:42.873Z,49.40
2018-02-09T11:53:11.053Z,49.37
2018-02-09T11:55:39.212Z,51.33
2018-02-09T11:58:07.357Z,49.90
2018-02-09T12:00:39.505Z,52.47
2018-02-09T12:03:07.642Z,50.87
2018-02-09T12:05:35.804Z,45.37
2018-02-09T12:08:03.949Z,51.43
2018-02-09T12:10:34.892Z,51.20
2018-02-09T12:13:03.791Z,50.20
2018-02-09T12:15:32.717Z,50.83
2018-02-09T12:18:00.861Z,52.37
2018-02-09T12:20:29.094Z,49.73
2018-02-09T12:22:57.237Z,47.73
2018-02-09T12:25:25.393Z,48.30
2018-02-09T12:27:53.529Z,47.93
2018-02-09T12:30:21.717Z,50.10
2018-02-09T12:32:50.646Z,48.77
2018-02-09T12:35:18.785Z,47.53
2018-02-09T12:37:47.705Z,50.23
2018-02-09T12:40:16.845Z,49.67
2018-02-09T12:42:45.005Z,52.13
2018-02-09T12:45:13.161Z,50.20
2018-02-09T12:47:41.304Z,52.20
2018-02-09T12:50:11.445Z,50.90
2018-02-09T12:52:39.589Z,50.50
2018-02-09T12:55:08.493Z,51.10
2018-02-09T12:57:36.749Z,45.93
2018-02-09T13:00:05.700Z,51.27
2018-02-09T13:02:33.898Z,49.20
2018-02-09T13:05:10.166Z,50.20
2018-02-09T13:07:39.967Z,46.63
2018-02-09T13:10:08.885Z,50.00
2018-02-09T13:15:53.501Z,47.77
2018-02-09T13:18:39.523Z,51.97
2018-02-09T13:21:07.648Z,49.43
2018-02-09T13:23:53.694Z,49.53
2018-02-09T13:26:21.864Z,58.43
2018-02-09T13:29:08.231Z,57.03
2018-02-09T13:31:36.369Z,52.83
2018-02-09T13:34:04.527Z,54.33
2018-02-09T13:39:44.442Z,49.83
2018-02-09T13:42:12.579Z,52.80
2018-02-09T13:44:40.756Z,49.33
2018-02-09T13:47:08.881Z,49.80
2018-02-09T13:49:37.048Z,49.43
2018-02-09T13:52:05.180Z,54.00
2018-02-09T13:54:33.343Z,52.03
2018-02-09T13:57:02.245Z,50.63
2018-02-09T13:59:55.753Z,45.97
2018-02-09T14:02:23.886Z,46.07
2018-02-09T14:04:52.140Z,48.10
2018-02-09T14:07:21.041Z,47.00
2018-02-09T14:09:49.265Z,47.27
2018-02-09T14:12:17.425Z,47.77
2018-02-09T14:14:45.553Z,48.77
2018-02-09T14:17:14.492Z,47.63
2018-02-09T14:19:46.133Z,47.73
2018-02-09T14:22:14.282Z,49.17
2018-02-09T14:24:43.186Z,46.73
2018-02-09T14:27:11.345Z,46.43
2018-02-09T14:29:42.225Z,51.97
2018-02-09T14:32:10.381Z,47.60
2018-02-09T14:34:38.521Z,48.73
2018-02-09T14:37:07.433Z,48.37
2018-02-09T14:39:41.346Z,51.03
2018-02-09T14:42:09.505Z,75.93
2018-02-09T14:44:37.644Z,52.67
2018-02-09T14:47:05.793Z,55.57
2018-02-09T14:49:33.967Z,50.30
2018-02-09T14:52:02.122Z,49.13
2018-02-09T14:54:30.266Z,46.50
2018-02-09T14:56:59.188Z,47.77
2018-02-09T14:59:31.049Z,47.83
2018-02-09T15:02:00.201Z,44.93
2018-02-09T15:04:29.121Z,47.37
2018-02-09T15:06:57.268Z,49.73
2018-02-09T15:09:27.119Z,46.07
2018-02-09T15:11:55.354Z,49.57
2018-02-09T15:14:24.297Z,51.17
2018-02-09T15:16:52.549Z,49.07
2018-02-09T15:19:20.710Z,47.93
2018-02-09T15:21:48.910Z,50.83
2018-02-09T15:24:17.122Z,50.43
2018-02-09T15:26:45.297Z,45.80
2018-02-09T15:29:13.500Z,49.20
2018-02-09T15:31:42.465Z,51.77
2018-02-09T15:34:10.694Z,46.43
2018-02-09T15:36:38.833Z,52.73
2018-02-09T15:39:12.077Z,48.80
2018-02-09T15:41:40.217Z,51.13
2018-02-09T15:44:08.372Z,52.17
2018-02-09T15:46:37.274Z,42.90
2018-02-09T15:49:06.409Z,45.90
2018-02-09T15:51:34.540Z,45.33
2018-02-09T15:54:03.461Z,42.83
2018-02-09T15:56:39.420Z,40.43
2018-02-09T15:59:07.572Z,44.10
2018-02-09T16:01:35.708Z,44.43
2018-02-09T16:04:03.861Z,38.20
2018-02-09T16:06:32.000Z,48.37
2018-02-09T16:09:14.529Z,49.10
2018-02-09T16:11:42.682Z,52.50
2018-02-09T16:14:10.841Z,46.67
2018-02-09T16:16:38.996Z,56.97
2018-02-09T16:19:26.780Z,53.03
2018-02-09T16:21:54.916Z,45.83
2018-02-09T16:24:23.832Z,45.23
2018-02-09T16:26:52.749Z,50.03
2018-02-09T16:29:22.865Z,49.27
2018-02-09T16:31:51.081Z,46.47
2018-02-09T16:34:19.181Z,47.67
2018-02-09T16:36:47.344Z,47.20
2018-02-09T16:39:23.216Z,47.83
2018-02-09T16:41:51.382Z,47.13
2018-02-09T16:44:19.525Z,48.20
2018-02-09T16:46:48.452Z,46.93
2018-02-09T16:49:38.616Z,42.53
2018-02-09T16:52:06.780Z,43.80
2018-02-09T16:54:35.688Z,48.70
2018-02-09T16:57:03.845Z,47.63
2018-02-09T16:59:33.896Z,47.03
2018-02-09T17:02:02.053Z,43.30
2018-02-09T17:04:30.221Z,46.60
2018-02-09T17:06:58.417Z,44.47
2018-02-09T17:09:26.634Z,47.63
2018-02-09T17:11:54.881Z,41.90
2018-02-09T17:14:23.069Z,37.33
2018-02-09T17:16:51.297Z,45.47
2018-02-09T17:19:21.220Z,40.33
2018-02-09T17:21:49.500Z,40.33
2018-02-09T17:24:17.685Z,48.83
2018-02-09T17:26:45.829Z,46.50
2018-02-09T17:29:14.001Z,42.10
2018-02-09T17:31:42.140Z,41.27
2018-02-09T17:34:10.308Z,41.43
2018-02-09T17:36:38.449Z,43.83
2018-02-09T17:39:07.645Z,41.47
2018-02-09T17:41:35.801Z,41.77
2018-02-09T17:44:03.949Z,47.27
2018-02-09T17:46:32.860Z,45.57
2018-02-09T17:49:01.013Z,40.63
2018-02-09T17:51:29.145Z,39.87
2018-02-09T17:53:57.317Z,45.30
2018-02-09T17:56:25.452Z,46.27
2018-02-09T17:58:53.622Z,44.70
2018-02-09T18:01:21.776Z,46.57
2018-02-09T18:03:50.694Z,39.83
2018-02-09T18:06:18.833Z,42.97
2018-02-09T18:08:48.917Z,42.43
2018-02-09T18:11:17.060Z,45.83
2018-02-09T18:13:45.216Z,41.73
2018-02-09T18:16:14.120Z,43.00
2018-02-09T18:18:43.249Z,41.43
2018-02-09T18:21:11.391Z,36.30
2018-02-09T18:23:39.553Z,45.87
2018-02-09T18:26:08.457Z,49.57
2018-02-09T18:28:37.585Z,45.60
2018-02-09T18:31:05.721Z,48.37
2018-02-09T18:33:33.890Z,48.73
2018-02-09T18:36:02.029Z,46.93
2018-02-09T18:38:31.096Z,49.80
2018-02-09T18:40:59.240Z,50.97
2018-02-09T18:43:27.398Z,47.20
2018-02-09T18:45:55.543Z,44.30
2018-02-09T18:48:23.709Z,44.10
2018-02-09T18:50:51.836Z,47.17
2018-02-09T18:53:19.997Z,46.60
2018-02-09T18:55:48.137Z,45.30
2018-02-09T18:58:16.364Z,41.13
2018-02-09T19:00:49.254Z,47.50
2018-02-09T19:03:17.516Z,43.57
2018-02-09T19:05:45.660Z,43.23
2018-02-09T19:08:13.837Z,45.17
2018-02-09T19:10:50.034Z,38.23
2018-02-09T19:13:18.184Z,42.93
2018-02-09T19:15:46.333Z,42.23
2018-02-09T19:18:15.257Z,46.20
2018-02-09T19:20:43.397Z,48.70
2018-02-09T19:23:12.337Z,51.90
2018-02-09T19:25:40.477Z,49.00
2018-02-09T19:28:09.380Z,50.07
2018-02-09T19:30:44.749Z,45.97
2018-02-09T19:33:12.889Z,46.43
2018-02-09T19:35:41.069Z,54.90
2018-02-09T19:38:09.213Z,51.10
2018-02-09T19:40:50.928Z,44.17
2018-02-09T19:43:19.089Z,38.77
2018-02-09T19:45:47.996Z,33.40
2018-02-09T19:48:16.129Z,35.43
2018-02-09T19:51:03.188Z,36.77
2018-02-09T19:53:36.406Z,33.63
2018-02-09T19:56:22.045Z,34.50
2018-02-09T19:59:04.573Z,33.93
2018-02-09T20:01:32.737Z,33.03
2018-02-09T20:04:00.989Z,34.83
2018-02-09T20:06:29.953Z,32.93
2018-02-09T20:09:19.194Z,32.67
2018-02-09T20:11:47.345Z,32.63
2018-02-09T20:14:15.590Z,34.40
2018-02-09T20:16:43.793Z,32.93
2018-02-09T20:19:12.961Z,32.53
2018-02-09T20:21:41.977Z,32.30
2018-02-09T20:24:10.913Z,33.43
2018-02-09T20:26:39.153Z,30.60
2018-02-09T20:29:08.305Z,29.03
2018-02-09T20:31:36.585Z,32.93
2018-02-09T20:34:04.753Z,33.23
2018-02-09T20:36:32.982Z,31.63
2018-02-09T20:39:13.300Z,33.23
2018-02-09T20:41:42.280Z,33.33
2018-02-09T20:44:10.414Z,32.43
2018-02-09T20:46:38.569Z,34.93
2018-02-09T20:49:13.716Z,34.17
2018-02-09T20:51:41.869Z,34.47
2018-02-09T20:54:10.773Z,33.37
2018-02-09T20:56:38.937Z,33.83
2018-02-09T20:59:11.329Z,35.10
2018-02-09T21:01:39.480Z,33.10
2018-02-09T21:04:08.414Z,31.90
2018-02-09T21:06:36.548Z,34.83
2018-02-09T21:09:08.341Z,33.20
2018-02-09T21:11:36.472Z,33.37
2018-02-09T21:14:05.390Z,33.73
2018-02-09T21:16:33.548Z,31.73
2018-02-09T21:19:01.697Z,29.93
2018-02-09T21:21:30.605Z,34.07
2018-02-09T21:23:58.780Z,32.90
2018-02-09T21:26:26.905Z,29.83
2018-02-09T21:28:55.985Z,31.67
2018-02-09T21:31:24.118Z,31.57
2018-02-09T21:33:52.272Z,31.57
2018-02-09T21:36:21.177Z,32.87
2018-02-09T21:38:54.517Z,33.23
2018-02-09T21:41:22.648Z,31.83
2018-02-09T21:43:51.563Z,33.83
2018-02-09T21:46:19.697Z,34.53
2018-02-09T21:48:48.628Z,34.70
2018-02-09T21:51:16.752Z,34.50
2018-02-09T21:53:44.922Z,32.87
2018-02-09T21:56:13.049Z,30.70
2018-02-09T21:58:42.157Z,31.80
2018-02-09T22:01:10.288Z,33.27
2018-02-09T22:03:39.209Z,34.53
2018-02-09T22:06:07.407Z,33.40
2018-02-09T22:08:43.658Z,30.80
2018-02-09T22:11:11.788Z,33.23
2018-02-09T22:13:40.707Z,33.10
2018-02-09T22:16:08.847Z,35.53
2018-02-09T22:18:40.554Z,32.90
2018-02-09T22:21:08.685Z,33.47
2018-02-09T22:23:36.841Z,35.80
2018-02-09T22:26:05.740Z,35.07
2018-02-09T22:28:48.166Z,36.37
2018-02-09T22:31:16.301Z,35.73
2018-02-09T22:33:44.496Z,35.43
2018-02-09T22:36:13.414Z,34.63
2018-02-09T22:38:43.537Z,34.23
2018-02-09T22:41:11.694Z,31.63
2018-02-09T22:43:39.829Z,36.27
2018-02-09T22:46:07.984Z,36.37
2018-02-09T22:48:36.117Z,36.70
2018-02-09T22:51:04.285Z,33.90
2018-02-09T22:53:32.418Z,37.80
2018-02-09T22:56:00.584Z,35.73
2018-02-09T22:58:28.718Z,34.53
2018-02-09T23:00:56.869Z,37.37
2018-02-09T23:03:25.005Z,33.60
2018-02-09T23:05:53.161Z,34.17
2018-02-09T23:08:21.296Z,32.50
2018-02-09T23:10:49.452Z,37.37
2018-02-09T23:13:18.362Z,34.53
2018-02-09T23:15:46.516Z,36.27
2018-02-09T23:18:15.421Z,34.57
2018-02-09T23:20:44.548Z,34.53
2018-02-09T23:23:12.692Z,29.27
2018-02-09T23:25:40.849Z,35.70
2018-02-09T23:28:09.048Z,32.63
2018-02-09T23:30:37.244Z,34.80
2018-02-09T23:33:05.376Z,35.63
2018-02-09T23:35:33.552Z,34.80
2018-02-09T23:38:01.693Z,34.17
2018-02-09T23:40:30.889Z,32.90
2018-02-09T23:42:59.037Z,35.07
2018-02-09T23:45:27.201Z,29.53
2018-02-09T23:47:55.358Z,30.57
2018-02-09T23:50:23.497Z,38.00
2018-02-09T23:52:52.420Z,39.30
2018-02-09T23:55:20.561Z,31.37
2018-02-09T23:57:49.545Z,36.27
